createdAt,value
2022-08-21T00:00:21.340Z,70.38
2022-08-21T00:02:51.323Z,70.21
2022-08-21T00:05:18.068Z,70.34
2022-08-21T00:07:44.858Z,70.64
2022-08-21T00:10:12.443Z,71.50
2022-08-21T00:12:40.219Z,71.10
2022-08-21T00:15:09.366Z,71.34
2022-08-21T00:17:36.605Z,71.70
2022-08-21T00:20:07.043Z,72.00
2022-08-21T00:22:33.586Z,71.67
2022-08-21T00:25:00.196Z,71.88
2022-08-21T00:27:26.743Z,72.11
2022-08-21T00:29:54.607Z,72.34
2022-08-21T00:32:23.609Z,73.08
2022-08-21T00:34:50.519Z,73.64
2022-08-21T00:37:17.034Z,74.63
2022-08-21T00:39:44.055Z,74.52
2022-08-21T00:42:11.287Z,74.44
2022-08-21T00:44:37.837Z,74.49
2022-08-21T00:47:04.616Z,74.42
2022-08-21T00:49:31.163Z,75.23
2022-08-21T00:51:59.915Z,75.73
2022-08-21T00:54:28.704Z,75.40
2022-08-21T00:56:59.590Z,75.55
2022-08-21T00:59:28.876Z,75.82
2022-08-21T01:01:55.624Z,76.14
2022-08-21T01:04:23.316Z,76.53
2022-08-21T01:06:50.096Z,76.08
2022-08-21T01:09:16.655Z,76.47
2022-08-21T01:11:44.187Z,76.83
2022-08-21T01:14:13.156Z,76.92
2022-08-21T01:16:44.117Z,77.33
2022-08-21T01:19:11.137Z,77.22
2022-08-21T01:21:38.813Z,77.56
2022-08-21T01:24:06.650Z,78.00
2022-08-21T01:26:35.612Z,78.32
2022-08-21T01:29:23.806Z,78.54
2022-08-21T01:31:50.422Z,78.03
2022-08-21T01:34:17.017Z,78.46
2022-08-21T01:36:45.467Z,78.67
2022-08-21T01:39:12.176Z,78.29
2022-08-21T01:41:38.698Z,78.50
2022-08-21T01:44:05.390Z,78.57
2022-08-21T01:46:31.972Z,78.97
2022-08-21T01:48:58.673Z,78.76
2022-08-21T01:51:25.283Z,79.07
2022-08-21T01:53:51.736Z,79.00
2022-08-21T01:56:19.198Z,79.33
2022-08-21T01:58:47.450Z,79.84
2022-08-21T02:01:14.847Z,80.21
2022-08-21T02:03:42.216Z,80.75
2022-08-21T02:06:14.143Z,81.06
2022-08-21T02:08:41.131Z,80.72
2022-08-21T02:11:07.952Z,80.89
2022-08-21T02:13:34.576Z,81.04
2022-08-21T02:16:01.023Z,81.20
2022-08-21T02:18:27.504Z,81.27
2022-08-21T02:20:56.072Z,81.35
2022-08-21T02:23:26.540Z,81.90
2022-08-21T02:26:00.345Z,81.84
2022-08-21T02:28:27.715Z,81.87
2022-08-21T02:30:55.258Z,82.08
2022-08-21T02:33:22.039Z,82.01
2022-08-21T02:35:49.751Z,81.97
2022-08-21T02:38:20.204Z,82.26
2022-08-21T02:40:51.105Z,82.03
2022-08-21T02:43:19.458Z,82.05
2022-08-21T02:45:46.884Z,82.24
2022-08-21T02:48:16.043Z,82.30
2022-08-21T02:50:46.185Z,82.61
2022-08-21T02:53:17.459Z,82.58
2022-08-21T02:55:48.564Z,82.83
2022-08-21T02:58:17.368Z,82.54
2022-08-21T03:00:44.736Z,82.53
2022-08-21T03:03:11.978Z,83.00
2022-08-21T03:05:38.675Z,83.18
2022-08-21T03:08:11.345Z,83.18
2022-08-21T03:10:40.717Z,83.32
2022-08-21T03:13:07.749Z,83.74
2022-08-21T03:15:34.212Z,83.68
2022-08-21T03:18:00.731Z,83.62
2022-08-21T03:20:29.466Z,83.95
2022-08-21T03:22:57.487Z,83.98
2022-08-21T03:25:39.881Z,83.78
2022-08-21T03:28:13.859Z,84.09
2022-08-21T03:30:42.926Z,84.61
2022-08-21T03:33:12.247Z,84.71
2022-08-21T03:35:43.457Z,85.00
2022-08-21T03:38:11.210Z,85.54
2022-08-21T03:40:37.843Z,85.46
2022-08-21T03:43:04.991Z,85.40
2022-08-21T03:45:32.439Z,85.06
2022-08-21T03:48:02.155Z,84.71
2022-08-21T03:50:31.669Z,84.41
2022-08-21T03:52:59.920Z,84.78
2022-08-21T03:55:27.871Z,84.59
2022-08-21T03:57:54.482Z,84.99
2022-08-21T04:00:21.544Z,84.92
2022-08-21T04:02:48.626Z,84.62
2022-08-21T04:05:27.932Z,84.78
2022-08-21T04:08:02.881Z,84.39
2022-08-21T04:10:31.489Z,83.53
2022-08-21T04:12:59.166Z,83.00
2022-08-21T04:15:27.029Z,82.80
2022-08-21T04:17:53.976Z,83.44
2022-08-21T04:20:22.524Z,82.95
2022-08-21T04:22:51.486Z,82.44
2022-08-21T04:25:20.147Z,82.29
2022-08-21T04:27:47.074Z,82.67
2022-08-21T04:30:15.787Z,82.07
2022-08-21T04:32:47.522Z,82.23
2022-08-21T04:35:17.950Z,82.03
2022-08-21T04:37:44.495Z,81.36
2022-08-21T04:40:13.408Z,80.59
2022-08-21T04:42:45.274Z,80.28
2022-08-21T04:45:26.943Z,79.91
2022-08-21T04:47:55.321Z,79.53
2022-08-21T04:50:32.556Z,79.27
2022-08-21T04:52:59.411Z,78.13
2022-08-21T04:55:28.416Z,77.90
2022-08-21T04:57:57.229Z,77.81
2022-08-21T05:00:25.518Z,77.75
2022-08-21T05:02:58.383Z,78.09
2022-08-21T05:05:25.702Z,77.84
2022-08-21T05:07:53.088Z,77.75
2022-08-21T05:10:19.663Z,76.98
2022-08-21T05:12:46.337Z,76.19
2022-08-21T05:15:13.916Z,75.90
2022-08-21T05:17:41.713Z,75.22
2022-08-21T05:20:09.592Z,74.32
2022-08-21T05:22:36.161Z,74.18
2022-08-21T05:25:03.075Z,73.04
2022-08-21T05:27:36.762Z,73.13
2022-08-21T05:30:09.989Z,73.00
2022-08-21T05:32:37.307Z,72.79
2022-08-21T05:35:08.092Z,73.03
2022-08-21T05:37:34.986Z,72.28
2022-08-21T05:40:12.760Z,72.46
2022-08-21T05:42:54.013Z,71.80
2022-08-21T05:45:41.468Z,71.72
2022-08-21T05:48:10.786Z,71.49
2022-08-21T05:50:39.126Z,72.83
2022-08-21T05:53:07.486Z,72.83
2022-08-21T05:55:34.586Z,72.24
2022-08-21T05:58:01.737Z,71.55
2022-08-21T06:00:28.398Z,70.39
2022-08-21T06:02:55.182Z,69.42
2022-08-21T06:05:37.427Z,69.56
2022-08-21T06:08:04.869Z,67.47
2022-08-21T06:10:32.206Z,66.59
2022-08-21T06:12:59.042Z,65.67
2022-08-21T06:15:27.478Z,65.33
2022-08-21T06:17:54.838Z,65.75
2022-08-21T06:20:22.083Z,65.04
2022-08-21T06:22:48.647Z,64.09
2022-08-21T06:25:15.483Z,63.71
2022-08-21T06:27:42.056Z,62.42
2022-08-21T06:30:10.054Z,62.34
2022-08-21T06:32:37.472Z,60.87
2022-08-21T06:35:06.141Z,61.07
2022-08-21T06:37:32.886Z,60.01
2022-08-21T06:39:59.626Z,55.60
2022-08-21T06:42:27.978Z,52.16
2022-08-21T06:44:54.996Z,48.41
2022-08-21T06:47:21.541Z,44.50
2022-08-21T06:49:48.190Z,41.78
2022-08-21T06:52:16.390Z,40.08
2022-08-21T06:54:42.956Z,38.34
2022-08-21T06:57:10.006Z,37.33
2022-08-21T06:59:37.069Z,36.06
2022-08-21T07:02:04.174Z,36.79
2022-08-21T07:04:31.057Z,36.24
2022-08-21T07:06:59.499Z,35.11
2022-08-21T07:09:26.145Z,33.75
2022-08-21T07:11:55.148Z,32.99
2022-08-21T07:14:22.054Z,31.43
2022-08-21T07:16:50.044Z,30.84
2022-08-21T07:19:16.592Z,30.60
2022-08-21T07:21:43.285Z,28.96
2022-08-21T07:24:12.903Z,27.38
2022-08-21T07:26:39.755Z,25.98
2022-08-21T07:29:06.560Z,26.30
2022-08-21T07:31:33.337Z,25.31
2022-08-21T07:33:59.967Z,25.43
2022-08-21T07:36:26.724Z,24.03
2022-08-21T07:38:53.509Z,24.63
2022-08-21T07:41:23.132Z,24.66
2022-08-21T07:43:52.703Z,24.75
2022-08-21T07:46:19.821Z,24.81
2022-08-21T07:48:46.442Z,25.32
2022-08-21T07:51:15.367Z,25.75
2022-08-21T07:53:42.124Z,25.55
2022-08-21T07:56:09.653Z,25.37
2022-08-21T07:58:36.261Z,25.61
2022-08-21T08:01:02.898Z,27.10
2022-08-21T08:03:29.640Z,28.71
2022-08-21T08:05:59.453Z,31.63
2022-08-21T08:08:27.320Z,33.62
2022-08-21T08:10:54.867Z,34.75
2022-08-21T08:13:21.632Z,35.18
2022-08-21T08:15:48.300Z,35.95
2022-08-21T08:18:14.879Z,37.01
2022-08-21T08:20:42.208Z,37.91
2022-08-21T08:23:12.104Z,39.11
2022-08-21T08:25:38.855Z,40.14
2022-08-21T08:28:16.506Z,39.56
2022-08-21T08:30:44.950Z,39.40
2022-08-21T08:33:11.625Z,40.47
2022-08-21T08:35:39.026Z,39.50
2022-08-21T08:38:06.755Z,39.48
2022-08-21T08:40:54.831Z,39.16
2022-08-21T08:43:21.503Z,40.20
2022-08-21T08:45:51.498Z,40.23
2022-08-21T08:48:32.946Z,39.27
2022-08-21T08:51:01.005Z,39.61
2022-08-21T08:53:36.479Z,39.42
2022-08-21T08:56:04.959Z,41.23
2022-08-21T08:58:35.278Z,42.08
2022-08-21T09:01:02.841Z,41.70
2022-08-21T09:03:29.692Z,42.04
2022-08-21T09:06:19.952Z,41.19
2022-08-21T09:08:55.470Z,41.23
2022-08-21T09:11:27.971Z,41.21
2022-08-21T09:14:09.357Z,41.15
2022-08-21T09:17:06.010Z,40.90
2022-08-21T09:19:44.714Z,41.43
2022-08-21T09:22:40.544Z,40.74
2022-08-21T09:25:29.388Z,42.73
2022-08-21T09:27:55.969Z,43.15
2022-08-21T09:30:28.927Z,43.91
2022-08-21T09:32:59.070Z,44.61
2022-08-21T09:35:26.906Z,45.17
2022-08-21T09:38:03.997Z,43.31
2022-08-21T09:40:36.269Z,43.62
2022-08-21T09:43:13.609Z,42.80
2022-08-21T09:45:42.861Z,43.31
2022-08-21T09:48:15.063Z,43.26
2022-08-21T09:50:43.353Z,43.39
2022-08-21T09:53:19.106Z,42.92
2022-08-21T09:56:09.687Z,41.08
2022-08-21T09:58:38.328Z,42.57
2022-08-21T10:01:07.154Z,42.58
2022-08-21T10:03:33.894Z,43.30
2022-08-21T10:06:09.147Z,45.12
2022-08-21T10:08:40.921Z,45.22
2022-08-21T10:11:11.017Z,46.97
2022-08-21T10:14:01.558Z,47.56
2022-08-21T10:16:48.015Z,47.39
2022-08-21T10:19:17.514Z,48.19
2022-08-21T10:21:59.867Z,47.71
2022-08-21T10:24:33.712Z,48.42
2022-08-21T10:27:24.137Z,49.35
2022-08-21T10:29:58.008Z,49.21
2022-08-21T10:32:34.673Z,49.24
2022-08-21T10:35:09.664Z,48.17
2022-08-21T10:37:44.903Z,47.40
2022-08-21T10:40:26.627Z,47.85
2022-08-21T10:43:36.318Z,46.34
2022-08-21T10:46:12.227Z,45.41
2022-08-21T10:48:44.858Z,45.94
2022-08-21T10:51:29.458Z,44.34
2022-08-21T10:54:01.185Z,44.14
2022-08-21T10:56:33.016Z,45.57
2022-08-21T10:59:40.675Z,45.61
2022-08-21T11:02:19.385Z,46.38
2022-08-21T11:05:12.476Z,47.58
2022-08-21T11:07:47.245Z,47.99
2022-08-21T11:10:59.338Z,48.78
2022-08-21T11:13:45.513Z,47.47
2022-08-21T11:16:33.578Z,47.41
2022-08-21T11:19:09.115Z,47.12
2022-08-21T11:21:40.846Z,46.89
2022-08-21T11:24:32.476Z,49.06
2022-08-21T11:27:16.169Z,48.98
2022-08-21T11:29:45.360Z,46.84
2022-08-21T11:33:03.317Z,45.58
2022-08-21T11:35:49.532Z,46.10
2022-08-21T11:38:35.738Z,45.61
2022-08-21T11:41:24.242Z,46.23
2022-08-21T11:43:57.244Z,44.78
2022-08-21T11:46:32.213Z,43.40
2022-08-21T11:49:25.473Z,43.57
2022-08-21T11:51:59.036Z,44.85
2022-08-21T11:54:46.911Z,44.27
2022-08-21T11:57:21.841Z,45.82
2022-08-21T12:00:12.655Z,43.74
2022-08-21T12:02:44.481Z,43.34
2022-08-21T12:05:22.769Z,42.15
2022-08-21T12:07:49.291Z,41.11
2022-08-21T12:10:21.975Z,40.90
2022-08-21T12:12:49.289Z,41.74
2022-08-21T12:15:21.876Z,41.72
2022-08-21T12:18:06.670Z,42.94
2022-08-21T12:20:38.417Z,42.07
2022-08-21T12:23:17.180Z,41.29
2022-08-21T12:26:02.798Z,42.36
2022-08-21T12:28:31.205Z,42.20
2022-08-21T12:30:59.006Z,41.31
2022-08-21T12:33:32.078Z,42.23
2022-08-21T12:36:17.280Z,43.08
2022-08-21T12:38:58.887Z,44.43
2022-08-21T12:41:34.310Z,43.88
2022-08-21T12:44:05.607Z,44.16
2022-08-21T12:46:46.773Z,43.13
2022-08-21T12:49:16.775Z,43.34
2022-08-21T12:52:17.825Z,42.32
2022-08-21T12:54:45.541Z,40.84
2022-08-21T12:57:24.305Z,40.20
2022-08-21T12:59:59.873Z,38.91
2022-08-21T13:02:36.120Z,40.45
2022-08-21T13:05:07.053Z,40.36
2022-08-21T13:07:36.217Z,40.87
2022-08-21T13:10:06.999Z,42.37
2022-08-21T13:12:34.279Z,42.86
2022-08-21T13:15:04.297Z,44.02
2022-08-21T13:17:38.647Z,44.97
2022-08-21T13:20:23.657Z,45.22
2022-08-21T13:22:53.257Z,45.06
2022-08-21T13:25:22.282Z,45.19
2022-08-21T13:28:10.235Z,44.63
2022-08-21T13:30:40.779Z,45.57
2022-08-21T13:33:12.875Z,45.11
2022-08-21T13:35:53.717Z,45.27
2022-08-21T13:38:21.871Z,44.72
2022-08-21T13:40:58.183Z,42.68
2022-08-21T13:43:34.251Z,43.35
2022-08-21T13:46:01.652Z,44.15
2022-08-21T13:48:31.246Z,44.79
2022-08-21T13:50:59.242Z,46.15
2022-08-21T13:53:36.276Z,44.73
2022-08-21T13:56:05.644Z,44.92
2022-08-21T13:58:43.590Z,43.95
2022-08-21T14:01:20.824Z,43.99
2022-08-21T14:03:49.926Z,44.31
2022-08-21T14:06:24.209Z,45.22
2022-08-21T14:08:54.239Z,44.68
2022-08-21T14:11:21.689Z,44.11
2022-08-21T14:13:58.613Z,42.92
2022-08-21T14:16:28.563Z,42.54
2022-08-21T14:19:32.414Z,42.72
2022-08-21T14:21:59.044Z,43.11
2022-08-21T14:24:28.316Z,43.03
2022-08-21T14:27:03.066Z,43.16
2022-08-21T14:29:38.504Z,44.09
2022-08-21T14:32:26.009Z,43.84
2022-08-21T14:34:54.883Z,44.16
2022-08-21T14:37:22.428Z,45.13
2022-08-21T14:39:49.355Z,44.74
2022-08-21T14:42:16.125Z,45.02
2022-08-21T14:44:42.711Z,44.22
2022-08-21T14:47:10.342Z,43.16
2022-08-21T14:49:37.079Z,43.25
2022-08-21T14:52:03.941Z,42.89
2022-08-21T14:54:32.517Z,42.82
2022-08-21T14:57:10.860Z,43.25
2022-08-21T14:59:38.630Z,42.60
2022-08-21T15:02:06.386Z,42.78
2022-08-21T15:04:34.017Z,43.21
2022-08-21T15:07:00.720Z,42.91
2022-08-21T15:09:27.505Z,42.58
2022-08-21T15:11:58.988Z,42.45
2022-08-21T15:14:27.839Z,42.47
2022-08-21T15:16:54.524Z,42.31
2022-08-21T15:19:21.351Z,42.81
2022-08-21T15:21:48.355Z,42.04
2022-08-21T15:24:15.111Z,41.60
2022-08-21T15:26:41.849Z,42.66
2022-08-21T15:29:09.214Z,41.04
2022-08-21T15:31:37.621Z,42.42
2022-08-21T15:34:04.258Z,42.55
2022-08-21T15:36:30.788Z,42.60
2022-08-21T15:38:59.169Z,43.10
2022-08-21T15:41:25.891Z,43.28
2022-08-21T15:43:54.044Z,43.30
2022-08-21T15:46:21.345Z,43.01
2022-08-21T15:48:48.246Z,43.82
2022-08-21T15:51:16.749Z,43.77
2022-08-21T15:53:43.604Z,44.14
2022-08-21T15:56:19.107Z,44.53
2022-08-21T15:58:45.747Z,44.51
2022-08-21T16:01:12.402Z,45.52
2022-08-21T16:03:39.647Z,46.36
2022-08-21T16:06:06.351Z,46.16
2022-08-21T16:08:33.126Z,46.63
2022-08-21T16:11:00.907Z,46.65
2022-08-21T16:13:30.396Z,46.96
2022-08-21T16:15:57.683Z,47.50
2022-08-21T16:18:24.416Z,47.35
2022-08-21T16:20:51.147Z,47.01
2022-08-21T16:23:17.812Z,47.44
2022-08-21T16:25:44.893Z,48.85
2022-08-21T16:28:14.743Z,49.79
2022-08-21T16:30:42.091Z,50.30
2022-08-21T16:33:14.368Z,51.27
2022-08-21T16:35:41.498Z,52.54
2022-08-21T16:38:08.301Z,52.99
2022-08-21T16:40:36.092Z,53.69
2022-08-21T16:43:02.882Z,54.56
2022-08-21T16:45:33.036Z,55.26
2022-08-21T16:48:00.340Z,55.04
2022-08-21T16:50:26.865Z,54.61
2022-08-21T16:52:54.346Z,55.64
2022-08-21T16:55:20.875Z,54.55
2022-08-21T16:57:47.466Z,55.16
2022-08-21T17:00:14.622Z,55.71
2022-08-21T17:02:45.688Z,55.92
2022-08-21T17:05:14.162Z,55.87
2022-08-21T17:07:41.636Z,56.47
2022-08-21T17:10:09.845Z,56.14
2022-08-21T17:12:36.596Z,56.74
2022-08-21T17:15:09.846Z,57.16
2022-08-21T17:17:36.646Z,57.42
2022-08-21T17:20:04.497Z,57.91
2022-08-21T17:22:31.447Z,58.08
2022-08-21T17:25:01.858Z,58.97
2022-08-21T17:27:29.133Z,58.54
2022-08-21T17:29:57.379Z,59.00
2022-08-21T17:32:24.584Z,60.25
2022-08-21T17:34:52.078Z,61.40
2022-08-21T17:37:19.022Z,61.18
2022-08-21T17:39:46.029Z,61.19
2022-08-21T17:42:13.830Z,61.42
2022-08-21T17:44:45.462Z,62.15
2022-08-21T17:47:13.584Z,62.53
2022-08-21T17:49:40.771Z,62.17
2022-08-21T17:52:08.023Z,63.06
2022-08-21T17:54:36.514Z,63.24
2022-08-21T17:57:03.999Z,63.55
2022-08-21T17:59:30.623Z,64.51
2022-08-21T18:02:01.475Z,65.00
2022-08-21T18:04:32.621Z,64.02
2022-08-21T18:06:59.229Z,63.96
2022-08-21T18:09:29.034Z,63.98
2022-08-21T18:11:59.623Z,64.42
2022-08-21T18:14:29.606Z,64.28
2022-08-21T18:16:57.464Z,65.07
2022-08-21T18:19:26.157Z,65.35
2022-08-21T18:21:58.173Z,66.05
2022-08-21T18:24:27.541Z,66.90
2022-08-21T18:26:54.631Z,66.78
2022-08-21T18:29:22.602Z,66.89
2022-08-21T18:31:49.571Z,67.11
2022-08-21T18:34:35.062Z,67.42
2022-08-21T18:37:02.518Z,67.64
2022-08-21T18:39:38.054Z,67.37
2022-08-21T18:42:09.632Z,67.73
2022-08-21T18:44:36.376Z,67.67
2022-08-21T18:47:08.067Z,67.85
2022-08-21T18:49:34.845Z,68.48
2022-08-21T18:52:01.420Z,68.40
2022-08-21T18:54:30.019Z,68.45
2022-08-21T18:56:57.428Z,67.66
2022-08-21T18:59:26.856Z,67.65
2022-08-21T19:01:53.521Z,67.47
2022-08-21T19:04:42.948Z,67.70
2022-08-21T19:07:06.927Z,68.11
2022-08-21T19:09:33.688Z,68.52
2022-08-21T19:12:00.418Z,68.30
2022-08-21T19:14:28.466Z,68.57
2022-08-21T19:16:55.531Z,68.84
2022-08-21T19:19:22.181Z,68.37
2022-08-21T19:21:49.495Z,68.81
2022-08-21T19:24:17.875Z,68.95
2022-08-21T19:26:45.118Z,69.08
2022-08-21T19:29:12.578Z,69.99
2022-08-21T19:31:44.155Z,70.77
2022-08-21T19:34:17.206Z,69.88
2022-08-21T19:36:43.868Z,69.70
2022-08-21T19:39:11.250Z,70.14
2022-08-21T19:41:42.427Z,70.10
2022-08-21T19:44:13.592Z,70.26
2022-08-21T19:46:43.491Z,70.26
2022-08-21T19:49:13.547Z,69.96
2022-08-21T19:51:40.672Z,70.13
2022-08-21T19:54:12.273Z,70.63
2022-08-21T19:56:38.784Z,70.21
2022-08-21T19:59:09.319Z,70.31
2022-08-21T20:01:36.752Z,70.50
2022-08-21T20:04:10.744Z,70.36
2022-08-21T20:06:46.149Z,70.54
2022-08-21T20:09:14.502Z,70.72
2022-08-21T20:11:52.668Z,70.78
2022-08-21T20:14:22.883Z,71.13
2022-08-21T20:16:52.627Z,71.52
2022-08-21T20:19:20.322Z,71.80
2022-08-21T20:21:46.940Z,71.89
2022-08-21T20:24:15.406Z,71.50
2022-08-21T20:26:48.714Z,71.59
2022-08-21T20:29:16.684Z,71.83
2022-08-21T20:31:50.754Z,71.61
2022-08-21T20:34:17.318Z,71.35
2022-08-21T20:36:44.688Z,71.59
2022-08-21T20:39:14.535Z,71.46
2022-08-21T20:41:41.446Z,72.04
2022-08-21T20:44:12.654Z,72.16
2022-08-21T20:46:39.815Z,72.46
2022-08-21T20:49:09.179Z,72.47
2022-08-21T20:51:43.167Z,72.60
2022-08-21T20:54:51.161Z,72.47
2022-08-21T20:57:30.654Z,72.06
2022-08-21T21:00:01.704Z,72.34
2022-08-21T21:02:57.856Z,72.82
2022-08-21T21:05:38.931Z,72.42
2022-08-21T21:08:16.266Z,72.25
2022-08-21T21:10:59.982Z,72.50
2022-08-21T21:13:30.959Z,72.38
2022-08-21T21:19:06.999Z,73.06
2022-08-21T21:24:51.538Z,74.15
2022-08-21T21:27:49.151Z,74.55
2022-08-21T21:30:23.530Z,75.31
2022-08-21T21:32:51.053Z,75.88
2022-08-21T21:35:32.321Z,76.33
2022-08-21T21:38:03.122Z,76.69
2022-08-21T21:40:54.242Z,77.55
2022-08-21T21:44:12.713Z,77.68
2022-08-21T21:47:01.796Z,78.17
2022-08-21T21:49:39.677Z,78.36
2022-08-21T21:52:27.696Z,78.43
2022-08-21T21:54:59.828Z,78.66
2022-08-21T21:57:55.106Z,78.69
2022-08-21T22:00:27.116Z,78.77
2022-08-21T22:03:19.401Z,79.00
2022-08-21T22:05:52.137Z,79.06
2022-08-21T22:08:30.199Z,79.00
2022-08-21T22:11:08.862Z,79.12
2022-08-21T22:13:58.335Z,79.01
2022-08-21T22:16:25.048Z,79.04
2022-08-21T22:18:57.132Z,79.33
2022-08-21T22:21:36.837Z,79.75
2022-08-21T22:24:13.076Z,80.19
2022-08-21T22:26:44.209Z,80.45
2022-08-21T22:29:16.677Z,80.73
2022-08-21T22:31:46.716Z,80.98
2022-08-21T22:34:21.765Z,80.34
2022-08-21T22:36:59.507Z,80.50
2022-08-21T22:39:48.038Z,80.54
2022-08-21T22:42:25.195Z,80.17
2022-08-21T22:44:57.113Z,80.57
2022-08-21T22:47:45.028Z,80.82
2022-08-21T22:50:25.697Z,81.21
2022-08-21T22:52:54.261Z,81.27
2022-08-21T22:55:37.178Z,81.53
2022-08-21T22:58:17.768Z,82.05
2022-08-21T23:01:06.425Z,82.17
2022-08-21T23:03:52.312Z,82.44
2022-08-21T23:06:29.987Z,82.70
2022-08-21T23:09:00.389Z,83.04
2022-08-21T23:11:42.703Z,83.36
2022-08-21T23:14:14.252Z,83.81
2022-08-21T23:16:56.827Z,84.58
2022-08-21T23:19:38.432Z,85.58
2022-08-21T23:22:28.759Z,86.34
2022-08-21T23:25:35.356Z,87.02
2022-08-21T23:28:21.938Z,87.03
2022-08-21T23:31:10.651Z,87.99
2022-08-21T23:33:53.904Z,88.38
2022-08-21T23:36:51.213Z,89.09
2022-08-21T23:39:42.077Z,89.79
2022-08-21T23:42:26.987Z,90.47
2022-08-21T23:45:22.793Z,90.71
2022-08-21T23:48:21.498Z,91.34
2022-08-21T23:50:55.842Z,91.66
2022-08-21T23:53:38.863Z,91.96
2022-08-21T23:56:26.661Z,92.42
2022-08-21T23:58:59.860Z,91.85
